createdAt,value
2022-09-01T00:24:45.191Z,16.5
2022-09-01T00:54:45.189Z,16.13
2022-09-01T01:24:45.201Z,15.56
2022-09-01T01:54:45.205Z,15.88
2022-09-01T02:24:45.201Z,15.63
2022-09-01T02:54:45.210Z,15.44
2022-09-01T03:24:45.195Z,14.75
2022-09-01T03:54:45.194Z,14.19
2022-09-01T04:24:45.309Z,13.56
2022-09-01T04:54:45.243Z,13.5
2022-09-01T05:24:45.225Z,13.56
2022-09-01T05:54:45.228Z,13.63
2022-09-01T06:24:47.370Z,14.5
2022-09-01T06:54:45.247Z,15.25
2022-09-01T07:24:45.250Z,16
2022-09-01T07:54:45.267Z,16.63
2022-09-01T08:24:45.272Z,17.75
2022-09-01T08:54:45.545Z,18.63
2022-09-01T09:24:45.312Z,19.81
2022-09-01T09:54:45.290Z,21.81
2022-09-01T10:24:45.967Z,23.63
2022-09-01T10:54:51.712Z,24.38
2022-09-01T11:24:48.315Z,24.44
2022-09-01T11:54:45.285Z,25.5
2022-09-01T12:24:45.274Z,25.81
2022-09-01T12:54:45.232Z,26.38
2022-09-01T13:24:45.266Z,25.56
2022-09-01T13:54:45.266Z,25.88
2022-09-01T14:24:45.297Z,28.63
2022-09-01T14:54:45.320Z,25.06
2022-09-01T15:24:45.325Z,23.81
2022-09-01T15:54:45.318Z,23.69
2022-09-01T16:24:45.333Z,23.19
2022-09-01T16:54:45.324Z,22.81
2022-09-01T17:24:45.344Z,21.06
2022-09-01T17:54:45.336Z,19.69
2022-09-01T18:24:45.349Z,18.5
2022-09-01T18:54:45.350Z,18.13
2022-09-01T19:24:45.371Z,17.38
2022-09-01T19:54:45.366Z,16.75
2022-09-01T20:24:45.352Z,16.13
2022-09-01T20:54:45.352Z,15.31
2022-09-01T21:24:45.340Z,14.94
2022-09-01T21:54:45.371Z,14.38
2022-09-01T22:24:45.371Z,14.19
2022-09-01T22:54:45.392Z,13.94
2022-09-01T23:24:45.391Z,13.81
2022-09-01T23:54:45.392Z,13.63
